Pagina principale
METAR-TAF:

METAR-TAF

Aeroporti :

Aeroporto di Crotone

Crotone, Italia

latitudine: 39-00N, longitudine: 017-04E, altezza: 155 m

Osservazione

Il bollettino è stato emesso 2 ore e 9 minuti fa, alle 18:50 UTC
Vento 12 kt da nord
Temperature 11°C
Umidità 87%
Pressione 1010 hPa
Visibilità 10 km o più
Nubi sparse ad un'altezza di 1500 ft

METAR: LIBC 181850Z 35012KT 9999 SCT015 11/09 Q1010

Ora: 21:59 (20:59 UTC)

Previsione

Il bollettino è stato emesso 3 ore e 59 minuti fa, alle 17:00 UTC
Previsione valida dal 18 alle 18 UTC al 19 alle 18 UTC
Vento 14 kt da nord
Visibilità 10 km o più
Nubi sparse ad un'altezza di 2000 ft
Evoluzione graduale
dal 19 alle 06 UTC al 19 alle 09 UTC
Vento 15 kt da sud con raffiche fino a 25 kt

TAF: LIBC 181700Z 1818/1918 36014KT 9999 SCT020 BECMG 1906/1909 19015G25KT

Osservazioni e previsioni meteorologiche di più di 4000 aeroporti (messaggi METAR e TAF).

Le stazioni disponibili sono rappresentate dai dischi gialli e rossi sulla carta.

Puntare il mouse per vedere il nome della stazione.

Clicca sopra per visualizzare le osservazioni e previsioni meteorologiche.

Per cambiare la mappa : fare clic sui pulsanti verdi con una croce nera per ingrandire, il pulsante verde con un trattino per diminuire, o sulla freccia verde per le mappe adiacenti.


METAR-TAF: